Peotone Weather

Nearby METAR Reports

 

KIGQ - Lansing, Illinois, USA
Distance from station: NE 19mi, 30km
Updated: Sat, 24-Jun-2017 6:55am CDT
Clear
Clear
 Wind from W
Wind: W 8 mph , 13 km/h
Temperature: 63°F , 17°C
Dew Point: 55°F , 13°C
Humidity: 77%
Barometer: 29.92 inHg , 1013.2 hPa
Clouds: Clear
Visibility: 10 miles , 16 km
2017/06/24 11:55 KIGQ 241155Z AUTO 28007KT 10SM CLR 17/13 A2992 RMK AO2 70009 T01720128 10186 20151
KIKK - Kankakee, Illinois, USA
Distance from station: S 19mi, 30km
Updated: Sat, 24-Jun-2017 6:55am CDT
Clear
Clear
 Wind from W
Wind: W 7 mph , 11 km/h
Temperature: 61°F , 16°C
Dew Point: 57°F , 14°C
Humidity: 88%
Barometer: 29.95 inHg , 1014.2 hPa
Clouds: Clear
Visibility: 10 miles , 16 km
2017/06/24 11:55 KIKK 241155Z AUTO 27006KT 10SM CLR 16/14 A2995 RMK AO2 6//// 7//// T01630143
 
KSJC - Joliet, Illinois, USA
Distance from station: WNW 24mi, 38km
Updated: Sat, 24-Jun-2017 6:53am CDT
Overcast
Overcast
 Wind from W
Wind: W 3 mph , 6 km/h
Temperature: 63°F , 17°C
Dew Point: 59°F , 15°C
Humidity: 88%
Barometer: 29.93 inHg , 1013.5 hPa
Clouds: Overcast
Visibility: 10 miles , 16 km
Cloud details: Overcast 1000 ft
2017/06/24 11:53 KSJC 241153Z AUTO 28003KT 10SM OVC010 17/15 A2993 RMK AO2 SLP134 T01720150 10178 20167 55004
KLOT - Romeoville, Illinois, USA
Distance from station: NW 26mi, 41km
Updated: Sat, 24-Jun-2017 6:55am CDT
Partly cloudy
Partly cloudy
 Wind from NW
Wind: NW 12 mph , 19 km/h, Gust: 16 mph , 26 km/h
Temperature: 63°F , 17°C
Dew Point: 54°F , 12°C
Humidity: 73%
Barometer: 29.93 inHg , 1013.5 hPa
Clouds: Partly cloudy
Visibility: 10 miles , 16 km
Cloud details: Partly cloudy 200 ft
2017/06/24 11:55 KLOT 241155Z AUTO 31010G14KT 10SM SCT002 17/12 A2993 RMK AO2 60004 70009 T01700124 10172 20155
 
KMDW - Midway Airport Chicago, Illinois, USA
Distance from station: N 31mi, 50km
Updated: Sat, 24-Jun-2017 6:53am CDT
Few Clouds
Few Clouds
 Wind from WNW
Wind: WNW 10 mph , 17 km/h
Temperature: 64°F , 18°C
Dew Point: 55°F , 13°C
Humidity: 73%
Barometer: 29.91 inHg , 1012.9 hPa
Clouds: Few Clouds
Visibility: 10 miles , 16 km
Cloud details: Few Clouds 9000 ft
2017/06/24 11:53 KMDW 241153Z 29009KT 10SM FEW090 18/13 A2991 RMK AO2 SLP121 70001 T01780133 10200 20167 51011
KC09 - Morris, Illinois, USA
Distance from station: W 34mi, 54km
Updated: Sat, 24-Jun-2017 6:55am CDT
Clear
Clear
 Wind from W
Wind: W 12 mph , 19 km/h
Temperature: 61°F , 16°C
Dew Point: 57°F , 14°C
Humidity: 88%
Barometer: 29.93 inHg , 1013.5 hPa
Clouds: Clear
Visibility: 10 miles , 16 km
2017/06/24 11:55 KC09 241155Z AUTO 28010KT 10SM CLR 16/14 A2993 RMK AO2 70001 T01610139 10166 20145

Metar display script from Saratoga-Weather.org